• Join FlightAware (Why Join?)
  • Login
  • US Flag 
 
08:21PM EST


 

Airport Tracker/Info


-or-


 

Live Flight TrackerFlight Track Log ✈ UAL4234 ✈ 05-Apr-2013 ✈ KCLT - KIAH

Flight Track Log - Related Links

Times and Time Zones

All times are in EDT time to prevent confusion due to time zone crossing. See the UAL4234 flight status page for this flight to view local times or setup timezone preferences in your user account.

Time Position Orientation Groundspeed Altitude Reporting Facility
EDT Latitude Longitude Course Direction KTS MPH feet Rate Location/Type
07:13AM 35.2311 -80.9569 251° West 150 173 1,600  Level Atlanta Center
07:14AM 35.2867 -81.0083 323° Northwest 246 283 3,700 2,160 Climbing Atlanta Center
07:15AM 35.2864 -81.0925 270° West 278 320 6,500 2,520 Climbing Atlanta Center
07:15AM 35.2814 -81.1383 262° West 249 287 7,700 1,440 Climbing Atlanta Center
07:16AM 35.2056 -81.2429 199° South  Level FlightAware Approximate
07:16AM 35.2758 -81.1742 259° West 247 284 8,000  Level Atlanta Center
07:16AM 35.2644 -81.2153 251° West 274 315 8,700 1,680 Climbing Atlanta Center
07:17AM 35.1075 -81.2773 192° South  Level FlightAware Approximate
07:17AM 35.2006 -81.2556 207° Southwest 255 293 10,700  Level Atlanta Center
07:18AM 35.0577 -81.3730 251° West  Level FlightAware Approximate
07:18AM 35.1139 -81.2914 199° South 284 327 11,700  Level Atlanta Center
07:19AM 35.0611 -81.3694 230° Southwest 301 346 13,500 1,620 Climbing Atlanta Center
07:20AM 35.0322 -81.4717 251° West 299 344 15,000 1,500 Climbing Atlanta Center
07:21AM 35.0028 -81.5742 251° West 304 350 16,500 1,440 Climbing Atlanta Center
07:22AM 34.9717 -81.6764 250° West 321 369 17,900 1,440 Climbing Atlanta Center
07:23AM 34.9422 -81.7786 251° West 321 369 19,400 1,500 Climbing Atlanta Center
07:24AM 34.8981 -81.8736 240° Southwest 326 375 20,900 1,440 Climbing Atlanta Center
07:25AM 34.8431 -81.9608 232° Southwest 326 375 22,300 1,440 Climbing Atlanta Center
07:26AM 34.7903 -82.0483 234° Southwest 326 375 23,800 1,500 Climbing Atlanta Center
07:27AM 34.7417 -82.1403 237° Southwest 326 375 25,300 1,440 Climbing Atlanta Center
07:28AM 34.6908 -82.2300 235° Southwest 326 375 26,700 1,440 Climbing Atlanta Center
07:29AM 34.6419 -82.3169 236° Southwest 331 381 28,200 1,440 Climbing Atlanta Center
07:30AM 34.5953 -82.3986 235° Southwest 315 362 29,600 1,320 Climbing Atlanta Center
07:31AM 34.5503 -82.4803 236° Southwest 304 350 30,900 1,140 Climbing Atlanta Center
07:32AM 34.5033 -82.5592 234° Southwest 299 344 31,900 900 Climbing Atlanta Center
07:33AM 34.4542 -82.6406 234° Southwest 299 344 32,800 900 Climbing Atlanta Center
07:34AM 34.4050 -82.7272 236° Southwest 299 344 33,800 600 Climbing Atlanta Center
07:35AM 34.3517 -82.8108 232° Southwest 310 357 34,000 60 Climbing Atlanta Center
07:36AM 34.3003 -82.9047 236° Southwest 332 382 34,000  Level Atlanta Center
07:37AM 34.2428 -83.0061 236° Southwest 355 409 34,000 300 Level Atlanta Center
07:38AM 34.1831 -83.1072 234° Southwest 372 428 34,700 900 Climbing Atlanta Center
07:39AM 34.1275 -83.2056 236° Southwest 366 421 35,900 600 Climbing Atlanta Center
07:40AM 34.0675 -83.3017 233° Southwest 357 411 36,000  Climbing Atlanta Center
07:41AM 34.0117 -83.4047 237° Southwest 368 423 36,000  Level Atlanta Center
07:42AM 33.9581 -83.4953 234° Southwest 368 423 36,000  Level Atlanta Center
07:43AM 33.8958 -83.5958 233° Southwest 373 429 36,000  Level Atlanta Center
07:44AM 33.8356 -83.6986 235° Southwest 378 435 36,000  Level Atlanta Center
07:45AM 33.7753 -83.7989 234° Southwest 373 429 36,000  Level Atlanta Center
07:46AM 33.7169 -83.8989 235° Southwest 378 435 36,000  Level Atlanta Center
07:47AM 33.6503 -84.0064 233° Southwest 378 435 36,000  Level Atlanta Center
07:48AM 33.5897 -84.1111 235° Southwest 378 435 36,000  Level Atlanta Center
07:49AM 33.5292 -84.2108 234° Southwest 378 435 36,000  Level Atlanta Center
07:50AM 33.4683 -84.3103 234° Southwest 378 435 36,000  Level Atlanta Center
07:51AM 33.4075 -84.4119 234° Southwest 378 435 36,000  Level Atlanta Center
07:52AM 33.3486 -84.5139 235° Southwest 378 435 36,000  Level Atlanta Center
07:53AM 33.2858 -84.6153 233° Southwest 378 435 36,000  Level Atlanta Center
07:54AM 33.2308 -84.7069 234° Southwest 378 435 36,000  Level Atlanta Center
07:55AM 33.1697 -84.8081 234° Southwest 378 435 36,000  Level Atlanta Center
07:56AM 33.1108 -84.9069 235° Southwest 378 435 36,000  Level Atlanta Center
07:57AM 33.0453 -85.0103 233° Southwest 383 441 36,000  Level Atlanta Center
07:58AM 32.9817 -85.1111 233° Southwest 383 441 36,000  Level Atlanta Center
07:59AM 32.9119 -85.2117 230° Southwest 378 435 36,000  Level Atlanta Center
08:00AM 32.8483 -85.3172 234° Southwest 378 435 36,000  Level Atlanta Center
08:01AM 32.7867 -85.4225 235° Southwest 378 435 36,000  Level Atlanta Center
08:02AM 32.7250 -85.5253 235° Southwest 383 441 36,000  Level Atlanta Center
08:03AM 32.6589 -85.6253 232° Southwest 383 441 36,000  Level Atlanta Center
08:04AM 32.5969 -85.7303 235° Southwest 383 441 36,000  Level Atlanta Center
08:05AM 32.5289 -85.8347 232° Southwest 388 447 36,000  Level Atlanta Center
08:06AM 32.4647 -85.9369 233° Southwest 396 456 36,000  Level Atlanta Center
08:07AM 32.4006 -86.0389 233° Southwest 396 456 36,000  Level Atlanta Center
08:08AM 32.3319 -86.1456 233° Southwest 401 461 36,000  Level Atlanta Center
08:09AM 32.2694 -86.2472 234° Southwest 401 461 36,000  Level Atlanta Center
08:10AM 32.2094 -86.3414 233° Southwest 401 461 36,000  Level Atlanta Center
08:11AM 32.1364 -86.4500 232° Southwest 401 461 36,000  Level Atlanta Center
08:12AM 32.0656 -86.5461 229° Southwest 401 461 36,000  Level Atlanta Center
08:13AM 31.9967 -86.6469 231° Southwest 401 461 36,000  Level Atlanta Center
08:14AM 31.9281 -86.7306 226° Southwest 401 461 36,000  Level Atlanta Center
08:15AM 31.8550 -86.8311 229° Southwest 401 461 36,000  Level Atlanta Center
08:18AM 31.6942 -87.0492 229° Southwest 397 457 36,000  Level Houston Center
08:19AM 31.6217 -87.1481 229° Southwest 399 459 36,000  Level Houston Center
08:20AM 31.5508 -87.2461 230° Southwest 396 456 36,000  Level Houston Center
08:21AM 31.4778 -87.3444 229° Southwest 398 458 36,000  Level Houston Center
08:22AM 31.4061 -87.4436 230° Southwest 400 460 36,000  Level Houston Center
08:23AM 31.3339 -87.5417 229° Southwest 400 460 36,000  Level Houston Center
08:24AM 31.2611 -87.6406 229° Southwest 401 461 36,000  Level Houston Center
08:25AM 31.1786 -87.7517 229° Southwest 396 456 36,000  Level Houston Center
08:26AM 31.1058 -87.8492 229° Southwest 398 458 36,000  Level Houston Center
08:27AM 31.0347 -87.9458 229° Southwest 395 455 36,000  Level Houston Center
08:28AM 30.9669 -88.0472 232° Southwest 398 458 36,000  Level Houston Center
08:29AM 30.9281 -88.1642 249° West 390 449 36,000 -60 Level Houston Center
08:30AM 30.8889 -88.2825 249° West 392 451 35,900  Descending Houston Center
08:31AM 30.8528 -88.4000 250° West 388 447 36,000  Climbing Houston Center
08:32AM 30.8131 -88.5175 249° West 391 450 36,000  Level Houston Center
08:33AM 30.7689 -88.6536 249° West 393 452 36,000  Level Houston Center
08:34AM 30.7306 -88.7719 249° West 392 451 36,000  Level Houston Center
08:35AM 30.6911 -88.8900 249° West 393 452 36,000  Level Houston Center
08:36AM 30.6519 -89.0131 250° West 388 447 36,000  Level Houston Center
08:37AM 30.6142 -89.1281 249° West 385 443 36,000 -480 Level Houston Center
08:38AM 30.5747 -89.2461 249° West 390 449 35,100 -540 Descending Houston Center
08:39AM 30.5353 -89.3667 249° West 399 459 35,000 -60 Descending Houston Center
08:40AM 30.4956 -89.4844 249° West 395 455 35,000  Level Houston Center
08:41AM 30.4497 -89.6233 249° West 387 445 35,000  Level Houston Center
08:42AM 30.4108 -89.7325 248° West 383 441 35,000  Level Houston Center
08:43AM 30.3708 -89.8447 248° West 380 437 35,000  Level Houston Center
08:44AM 30.3372 -89.9553 251° West 378 435 35,000  Level Houston Center
08:45AM 30.2911 -90.0906 248° West 379 436 35,000 180 Level Houston Center
08:46AM 30.2508 -90.2103 249° West 393 452 35,400 480 Climbing Houston Center
08:47AM 30.2114 -90.3272 249° West 394 453 36,000 240 Climbing Houston Center
08:48AM 30.1711 -90.4483 249° West 400 460 36,000  Level Houston Center
08:49AM 30.1286 -90.5694 248° West 407 468 36,000  Level Houston Center
08:50AM 30.0861 -90.6917 248° West 410 472 36,000  Level Houston Center
08:51AM 30.0447 -90.8136 249° West 410 472 36,000  Level Houston Center
08:52AM 29.9931 -90.9617 248° West 414 476 36,000  Level Houston Center
08:54AM 29.9475 -91.0858 247° West 419 482 36,000  Level Houston Center
08:55AM 29.9053 -91.2092 248° West 418 481 36,000  Level Houston Center
08:56AM 29.8611 -91.3336 248° West 420 483 36,000  Level Houston Center
08:57AM 29.8164 -91.4586 248° West 422 486 36,000  Level Houston Center
08:58AM 29.7717 -91.5836 248° West 422 486 36,000  Level Houston Center
08:59AM 29.7267 -91.7078 247° West 421 484 36,000  Level Houston Center
09:00AM 29.6775 -91.8439 247° West 424 488 36,000  Level Houston Center
09:01AM 29.6325 -91.9700 248° West 426 490 36,000  Level Houston Center
09:02AM 29.5875 -92.0947 247° West 424 488 36,000  Level Houston Center
09:03AM 29.5417 -92.2217 247° West 429 494 36,000  Level Houston Center
09:04AM 29.4961 -92.3483 248° West 429 494 36,000  Level Houston Center
09:05AM 29.4569 -92.5022 254° West 413 475 36,000  Level Houston Center
09:06AM 29.4644 -92.6272 274° West 393 452 36,000  Level Houston Center
09:07AM 29.4697 -92.7514 273° West 390 449 36,000  Level Houston Center
09:08AM 29.4742 -92.8728 272° West 383 441 36,000 -480 Level Houston Center
09:09AM 29.4806 -92.9886 274° West 368 423 35,100 -1,440 Descending Houston Center
09:10AM 29.4842 -93.1061 272° West 369 425 33,100 -2,040 Descending Houston Center
09:11AM 29.4903 -93.2194 274° West 358 412 31,000 -2,100 Descending Houston Center
09:12AM 29.4953 -93.3475 273° West 394 453 28,800 -2,280 Descending Houston Center
09:13AM 29.5025 -93.5117 273° West 424 488 26,400 -2,280 Descending Houston Center
09:14AM 29.5072 -93.6492 272° West 429 494 24,200 -2,280 Descending Houston Center
09:15AM 29.5133 -93.7803 273° West 414 476 21,800 -2,340 Descending Houston Center
09:16AM 29.5167 -93.9058 272° West 398 458 19,500 -2,160 Descending Houston Center
09:17AM 29.5222 -94.0275 273° West 384 442 17,400 -2,280 Descending Houston Center
09:18AM 29.5261 -94.1369 272° West 368 423 15,300 -1,920 Descending Houston Center
09:19AM 29.5297 -94.2597 272° West 355 409 13,500 -1,080 Descending Houston Center
09:20AM 29.5400 -94.3600 277° West 323 372 13,000 -660 Descending Houston Center
09:21AM 29.5844 -94.4683 295° West 316 364 12,200 -900 Descending Houston Center
09:22AM 29.6197 -94.5506 296° West 319 367 11,300 -960 Descending Houston Center
09:23AM 29.6628 -94.6464 297° West 312 359 10,200 -900 Descending Houston Center
09:24AM 29.7186 -94.7039 318° Northwest 241 277 9,500 -960 Descending Houston Center
09:25AM 29.7711 -94.7567 319° Northwest 260 299 8,300 -1,140 Descending Houston Center
09:26AM 29.8264 -94.8178 316° Northwest 250 288 7,200 -720 Descending Houston Center
09:27AM 29.8781 -94.8742 317° Northwest 256 295 7,000 -660 Descending Houston Center
09:28AM 29.9200 -94.9411 306° West 257 296 5,900 -1,260 Descending Houston Center
09:29AM 29.9483 -95.0197 293° West 267 307 4,500 -1,320 Descending Houston Center
09:30AM 29.9764 -95.0933 294° West 251 289 3,300 -900 Descending Houston Center
09:31AM 29.9964 -95.1728 286° West 237 273 2,800 -840 Descending Houston Center
09:32AM 29.9936 -95.2336 267° West 162 186 1,700 -1,140 Descending Houston Center